Time;durP1;ratioP1;P1;durP2;ratioP2;P2;SDS_P1;SDS_P2;PMS_P1;PMS_P2;Temp;Humidity;BMP_temperature;BMP_pressure;BME280_temperature;BME280_humidity;BME280_pressure;Samples;Min_cycle;Max_cycle;Signal;HPM_P1;HPM_P2
2023/03/28 00:00:58;;;;;;;0.30;0.30;;;1.70;99.90;;;;;;5056089;28;20489;-78
2023/03/28 00:03:26;;;;;;;0.57;0.53;;;1.80;99.90;;;;;;5055926;28;20488;-78
2023/03/28 00:05:56;;;;;;;0.30;0.30;;;1.80;99.90;;;;;;5056000;28;20881;-78
2023/03/28 00:08:23;;;;;;;1.17;0.50;;;1.90;99.90;;;;;;5055926;28;20427;-78
2023/03/28 00:10:50;;;;;;;0.40;0.40;;;2.00;99.90;;;;;;5055504;28;20864;-78
2023/03/28 00:13:20;;;;;;;0.30;0.30;;;2.00;99.90;;;;;;5055635;28;20810;-78
2023/03/28 00:15:47;;;;;;;1.03;0.50;;;2.10;99.90;;;;;;5056314;28;20508;-78
2023/03/28 00:18:14;;;;;;;0.43;0.30;;;2.10;99.90;;;;;;5055739;28;20446;-78
2023/03/28 00:20:42;;;;;;;0.53;0.53;;;2.10;99.90;;;;;;5055449;28;20934;-78
2023/03/28 00:23:10;;;;;;;0.30;0.30;;;2.10;99.90;;;;;;5055640;28;20583;-78
2023/03/28 00:25:38;;;;;;;0.30;0.30;;;2.10;99.90;;;;;;5055524;28;20487;-78
2023/03/28 00:28:05;;;;;;;0.30;0.30;;;2.10;99.90;;;;;;5055535;28;20454;-78
2023/03/28 00:30:33;;;;;;;0.70;0.30;;;2.10;99.90;;;;;;5055438;28;20448;-78
2023/03/28 00:33:00;;;;;;;0.30;0.30;;;2.10;99.90;;;;;;5055145;28;20922;-78
2023/03/28 00:35:27;;;;;;;0.50;0.30;;;2.10;99.90;;;;;;5055368;28;20446;-78
2023/03/28 00:37:57;;;;;;;0.30;0.30;;;2.10;99.90;;;;;;5055475;28;20441;-78
2023/03/28 00:40:25;;;;;;;0.30;0.30;;;2.10;99.90;;;;;;5055555;28;20566;-78
2023/03/28 00:42:52;;;;;;;1.13;0.60;;;2.00;99.90;;;;;;5055752;28;20945;-78
2023/03/28 00:45:20;;;;;;;0.40;0.40;;;2.00;99.90;;;;;;5055224;28;20489;-78
2023/03/28 00:47:52;;;;;;;0.30;0.30;;;2.00;99.90;;;;;;5054982;28;20538;-78
2023/03/28 00:50:23;;;;;;;0.40;0.40;;;1.90;99.90;;;;;;5054876;28;20457;-79
2023/03/28 00:52:55;;;;;;;0.30;0.30;;;1.90;99.90;;;;;;5055143;28;20435;-78
2023/03/28 00:55:26;;;;;;;0.30;0.27;;;1.90;99.90;;;;;;5054871;28;20411;-78
2023/03/28 00:57:53;;;;;;;0.40;0.30;;;1.90;99.90;;;;;;5055545;28;20941;-78
2023/03/28 01:00:20;;;;;;;0.40;0.40;;;2.00;99.90;;;;;;5054504;28;20982;-78
2023/03/28 01:02:52;;;;;;;0.40;0.37;;;2.00;99.90;;;;;;5054674;28;20443;-78
2023/03/28 01:05:24;;;;;;;0.57;0.53;;;2.00;99.90;;;;;;5054831;28;20481;-78
2023/03/28 01:07:55;;;;;;;0.30;0.30;;;2.10;99.90;;;;;;5054587;28;20499;-78
2023/03/28 01:10:23;;;;;;;0.40;0.40;;;2.00;99.90;;;;;;5054417;28;21005;-78
2023/03/28 01:12:52;;;;;;;1.70;0.57;;;2.00;99.90;;;;;;5054726;28;20455;-78
2023/03/28 01:15:18;;;;;;;0.40;0.40;;;2.00;99.90;;;;;;5054655;28;20438;-78
2023/03/28 01:17:46;;;;;;;0.30;0.30;;;2.00;99.90;;;;;;5054325;28;20418;-78
2023/03/28 01:20:41;;;;;;;0.30;0.30;;;2.10;99.90;;;;;;5054498;28;20569;-78
2023/03/28 01:23:44;;;;;;;0.40;0.30;;;2.10;99.90;;;;;;5054485;28;20434;-78
2023/03/28 01:26:36;;;;;;;0.30;0.30;;;2.20;99.90;;;;;;5054099;28;20442;-78
2023/03/28 01:29:34;;;;;;;0.30;0.30;;;2.20;99.90;;;;;;5054411;28;20467;-78
2023/03/28 01:32:28;;;;;;;0.30;0.30;;;2.20;99.90;;;;;;5054328;28;20434;-78
2023/03/28 01:35:19;;;;;;;1.03;1.03;;;2.30;99.90;;;;;;5053979;28;20411;-78
2023/03/28 01:37:51;;;;;;;0.33;0.33;;;2.20;99.90;;;;;;5053992;28;20823;-78
2023/03/28 01:40:25;;;;;;;0.37;0.37;;;2.20;99.90;;;;;;5054184;28;20466;-78
2023/03/28 01:43:02;;;;;;;0.40;0.40;;;2.10;99.90;;;;;;5054216;28;20897;-78
2023/03/28 01:45:42;;;;;;;3.73;0.53;;;2.00;99.90;;;;;;5054268;28;20852;-78
2023/03/28 01:48:16;;;;;;;0.30;0.30;;;2.00;99.90;;;;;;5054091;28;20496;-78
2023/03/28 01:50:46;;;;;;;0.40;0.33;;;2.00;99.90;;;;;;5054074;28;20509;-84
2023/03/28 01:53:20;;;;;;;0.30;0.30;;;1.90;99.90;;;;;;5054094;28;20434;-84
2023/03/28 01:55:52;;;;;;;0.50;0.47;;;1.90;99.90;;;;;;5053957;28;20426;-84
2023/03/28 01:58:28;;;;;;;0.30;0.30;;;1.80;99.90;;;;;;5053354;28;20437;-84
2023/03/28 02:01:04;;;;;;;0.60;0.60;;;1.70;99.90;;;;;;5053787;28;20458;-84
2023/03/28 02:03:34;;;;;;;1.23;0.50;;;1.70;99.90;;;;;;5053784;28;20512;-84
2023/03/28 02:06:04;;;;;;;0.37;0.37;;;1.70;99.90;;;;;;5053810;28;20434;-84
2023/03/28 02:08:36;;;;;;;0.57;0.57;;;1.60;99.90;;;;;;5053657;28;20458;-84
2023/03/28 02:11:05;;;;;;;1.37;0.63;;;1.60;99.90;;;;;;5053283;28;20494;-84
2023/03/28 02:13:36;;;;;;;0.30;0.30;;;1.50;99.90;;;;;;5053666;28;20519;-84
2023/03/28 02:16:06;;;;;;;0.30;0.30;;;1.60;99.90;;;;;;5053264;28;20757;-84
2023/03/28 02:18:36;;;;;;;0.47;0.47;;;1.60;99.90;;;;;;5052880;28;20463;-84
2023/03/28 02:21:08;;;;;;;1.60;0.60;;;1.50;99.90;;;;;;5053224;28;20783;-84
2023/03/28 02:23:39;;;;;;;0.93;0.50;;;1.50;99.90;;;;;;5053135;28;20890;-84
2023/03/28 02:26:06;;;;;;;0.30;0.30;;;1.50;99.90;;;;;;5054423;28;20795;-84
2023/03/28 02:28:35;;;;;;;0.40;0.37;;;1.40;99.90;;;;;;5053208;28;20446;-84
2023/03/28 02:31:04;;;;;;;0.60;0.47;;;1.40;99.90;;;;;;5053161;28;20464;-84
2023/03/28 02:33:38;;;;;;;4.57;0.50;;;1.40;99.90;;;;;;5053210;28;20451;-84
2023/03/28 02:36:23;;;;;;;0.30;0.30;;;1.30;99.90;;;;;;5052823;28;20453;-84
2023/03/28 02:39:00;;;;;;;0.47;0.47;;;1.30;99.90;;;;;;5053195;28;20470;-84
2023/03/28 02:41:38;;;;;;;0.60;0.43;;;1.30;99.90;;;;;;5053141;28;20445;-84
2023/03/28 02:44:20;;;;;;;0.30;0.27;;;1.20;99.90;;;;;;5053087;28;20469;-84
2023/03/28 02:46:55;;;;;;;0.40;0.40;;;1.20;99.90;;;;;;5052714;28;20540;-84
2023/03/28 02:49:33;;;;;;;0.60;0.60;;;1.20;99.90;;;;;;5052890;28;20454;-84
2023/03/28 02:52:13;;;;;;;1.10;1.07;;;1.20;99.90;;;;;;5053014;28;20441;-84
2023/03/28 02:54:49;;;;;;;0.33;0.27;;;1.10;99.90;;;;;;5052743;28;20484;-84
2023/03/28 02:57:23;;;;;;;0.67;0.37;;;1.10;99.90;;;;;;5052740;28;20909;-84
2023/03/28 02:59:56;;;;;;;0.30;0.30;;;1.00;99.90;;;;;;5052870;28;20503;-84
2023/03/28 03:02:24;;;;;;;0.30;0.30;;;1.10;99.90;;;;;;5053016;28;20430;-84
2023/03/28 03:04:56;;;;;;;0.70;0.70;;;1.10;99.90;;;;;;5053611;28;20500;-84
2023/03/28 03:07:23;;;;;;;0.30;0.20;;;1.10;99.90;;;;;;5052981;28;20438;-84
2023/03/28 03:09:52;;;;;;;0.30;0.30;;;1.00;99.90;;;;;;5052555;28;20553;-84
2023/03/28 03:12:19;;;;;;;0.40;0.30;;;1.00;99.90;;;;;;5055570;28;20477;-84
2023/03/28 03:14:49;;;;;;;0.83;0.57;;;1.00;99.90;;;;;;5056688;28;20795;-84
2023/03/28 03:17:16;;;;;;;2.00;1.00;;;1.00;99.90;;;;;;5056693;28;20409;-84
2023/03/28 03:19:43;;;;;;;1.43;0.40;;;1.00;99.90;;;;;;5056646;28;20535;-84
2023/03/28 03:22:10;;;;;;;0.40;0.40;;;1.00;99.90;;;;;;5056525;28;20470;-84
2023/03/28 03:24:36;;;;;;;0.30;0.30;;;0.90;99.90;;;;;;5056503;28;20486;-84
2023/03/28 03:27:05;;;;;;;0.63;0.40;;;0.90;99.90;;;;;;5056617;28;20450;-84
2023/03/28 03:29:31;;;;;;;0.47;0.47;;;1.00;99.90;;;;;;5056566;28;20493;-84
2023/03/28 03:31:58;;;;;;;0.40;0.30;;;1.00;99.90;;;;;;5056451;28;20454;-84
2023/03/28 03:34:25;;;;;;;2.63;0.67;;;0.90;99.90;;;;;;5056439;28;20450;-84
2023/03/28 03:36:53;;;;;;;0.30;0.30;;;0.90;99.90;;;;;;5056191;28;20925;-84
2023/03/28 03:39:20;;;;;;;0.50;0.40;;;0.90;99.90;;;;;;5056358;28;20481;-84
2023/03/28 03:41:47;;;;;;;0.63;0.63;;;0.90;99.90;;;;;;5056401;28;20806;-84
2023/03/28 03:44:15;;;;;;;0.30;0.30;;;0.90;99.90;;;;;;5056337;28;20478;-84
2023/03/28 03:46:42;;;;;;;0.40;0.30;;;0.90;99.90;;;;;;5056249;28;20504;-84
2023/03/28 03:49:09;;;;;;;0.40;0.40;;;0.90;99.90;;;;;;5055817;28;20470;-84
2023/03/28 03:51:38;;;;;;;0.70;0.50;;;0.80;99.90;;;;;;5056580;28;20512;-84
2023/03/28 03:54:05;;;;;;;0.30;0.30;;;0.80;99.90;;;;;;5056157;28;20414;-82
2023/03/28 03:56:31;;;;;;;0.30;0.30;;;0.80;99.90;;;;;;5056195;28;20795;-83
2023/03/28 03:58:58;;;;;;;0.30;0.30;;;0.80;99.90;;;;;;5056148;28;20484;-83
2023/03/28 04:01:28;;;;;;;0.30;0.20;;;0.80;99.90;;;;;;5055859;28;20441;-83
2023/03/28 04:03:55;;;;;;;0.30;0.30;;;0.80;99.90;;;;;;5056125;28;20471;-83
2023/03/28 04:06:22;;;;;;;0.40;0.40;;;0.90;99.90;;;;;;5055861;28;20482;-83
2023/03/28 04:08:50;;;;;;;1.73;0.50;;;0.80;99.90;;;;;;5056416;28;20920;-83
2023/03/28 04:11:16;;;;;;;0.37;0.37;;;0.80;99.90;;;;;;5056112;28;20577;-82
2023/03/28 04:13:43;;;;;;;2.20;0.50;;;0.80;99.90;;;;;;5055866;28;20424;-83
2023/03/28 04:16:12;;;;;;;0.90;0.90;;;0.80;99.90;;;;;;5055705;28;20443;-82
2023/03/28 04:18:40;;;;;;;0.43;0.40;;;0.80;99.90;;;;;;5055705;28;20470;-83
2023/03/28 04:21:09;;;;;;;0.30;0.30;;;0.70;99.90;;;;;;5055969;28;20511;-83
2023/03/28 04:23:37;;;;;;;0.60;0.30;;;0.70;99.90;;;;;;5055132;28;20470;-83
2023/03/28 04:26:07;;;;;;;0.40;0.40;;;0.80;99.90;;;;;;5055324;28;20481;-82
2023/03/28 04:28:34;;;;;;;0.40;0.40;;;0.70;99.90;;;;;;5056306;28;20442;-82
2023/03/28 04:31:01;;;;;;;0.30;0.30;;;0.70;99.90;;;;;;5055537;28;20508;-83
2023/03/28 04:33:29;;;;;;;0.40;0.30;;;0.70;99.90;;;;;;5055530;28;20831;-83
2023/03/28 04:35:59;;;;;;;0.40;0.40;;;0.60;99.90;;;;;;5055686;28;20439;-84
2023/03/28 04:38:26;;;;;;;0.37;0.33;;;0.60;99.90;;;;;;5055185;28;20433;-84
2023/03/28 04:40:56;;;;;;;0.40;0.40;;;0.60;99.90;;;;;;5055035;28;20447;-84
2023/03/28 04:43:23;;;;;;;0.80;0.50;;;0.60;99.90;;;;;;5055270;28;20492;-84
2023/03/28 04:45:50;;;;;;;0.30;0.30;;;0.60;99.90;;;;;;5054838;28;20842;-84
2023/03/28 04:48:17;;;;;;;0.37;0.37;;;0.60;99.90;;;;;;5054763;28;20489;-84
2023/03/28 04:50:43;;;;;;;0.40;0.40;;;0.60;99.90;;;;;;5054891;28;20775;-84
2023/03/28 04:53:12;;;;;;;0.40;0.30;;;0.60;99.90;;;;;;5054639;28;20455;-84
2023/03/28 04:55:39;;;;;;;0.50;0.50;;;0.60;99.90;;;;;;5055095;28;20485;-84
2023/03/28 04:58:05;;;;;;;0.40;0.40;;;0.60;99.90;;;;;;5054881;28;20487;-84
2023/03/28 05:00:32;;;;;;;0.30;0.20;;;0.60;99.90;;;;;;5054794;28;20470;-85
2023/03/28 05:03:00;;;;;;;0.30;0.20;;;0.60;99.90;;;;;;5055082;28;20454;-85
2023/03/28 05:05:26;;;;;;;0.40;0.30;;;0.60;99.90;;;;;;5054991;28;20478;-85
2023/03/28 05:07:53;;;;;;;0.40;0.40;;;0.60;99.90;;;;;;5054803;28;20443;-84
2023/03/28 05:10:21;;;;;;;0.40;0.40;;;0.50;99.90;;;;;;5054431;28;20982;-85
2023/03/28 05:12:48;;;;;;;0.40;0.33;;;0.50;99.90;;;;;;5055300;28;20434;-84
2023/03/28 05:15:15;;;;;;;0.30;0.30;;;0.50;99.90;;;;;;5054663;28;20453;-85
2023/03/28 05:17:42;;;;;;;0.90;0.63;;;0.50;99.90;;;;;;5054746;28;20455;-85
2023/03/28 05:20:10;;;;;;;0.77;0.40;;;0.50;99.90;;;;;;5054644;28;20882;-85
2023/03/28 05:22:36;;;;;;;0.70;0.70;;;0.50;99.90;;;;;;5054896;28;20485;-84
2023/03/28 05:25:05;;;;;;;0.30;0.30;;;0.50;99.90;;;;;;5054852;28;20478;-84
2023/03/28 05:27:33;;;;;;;0.40;0.40;;;0.50;99.90;;;;;;5054516;28;20486;-85
2023/03/28 05:30:00;;;;;;;0.73;0.40;;;0.50;99.90;;;;;;5054625;28;20462;-85
2023/03/28 05:32:26;;;;;;;0.40;0.30;;;0.50;99.90;;;;;;5054093;28;20436;-85
2023/03/28 05:34:53;;;;;;;1.03;0.93;;;0.50;99.90;;;;;;5053549;28;20446;-84
2023/03/28 05:37:20;;;;;;;0.40;0.40;;;0.50;99.90;;;;;;5054223;28;20434;-84
2023/03/28 05:39:47;;;;;;;0.40;0.40;;;0.50;99.90;;;;;;5054016;28;20459;-84
2023/03/28 05:42:13;;;;;;;1.70;0.40;;;0.60;99.90;;;;;;5054819;28;20511;-85
2023/03/28 05:44:41;;;;;;;0.30;0.20;;;0.60;99.90;;;;;;5054271;28;20427;-84
2023/03/28 05:47:08;;;;;;;0.50;0.47;;;0.70;99.90;;;;;;5053731;28;20942;-85
2023/03/28 05:49:35;;;;;;;0.30;0.30;;;0.80;99.90;;;;;;5053984;28;20455;-84
2023/03/28 05:52:01;;;;;;;0.67;0.67;;;0.80;99.90;;;;;;5054078;28;20453;-84
2023/03/28 05:54:29;;;;;;;0.77;0.70;;;0.90;99.90;;;;;;5054193;28;20478;-85
2023/03/28 05:56:56;;;;;;;0.57;0.53;;;0.90;99.90;;;;;;5053576;28;20953;-85
2023/03/28 05:59:23;;;;;;;0.30;0.30;;;0.90;99.90;;;;;;5054053;28;20481;-84
2023/03/28 06:01:52;;;;;;;0.40;0.40;;;0.90;99.90;;;;;;5054093;28;20486;-85
2023/03/28 06:04:20;;;;;;;0.40;0.40;;;1.00;99.90;;;;;;5053823;28;20458;-85
2023/03/28 06:06:47;;;;;;;0.40;0.30;;;1.10;99.90;;;;;;5053621;28;20510;-84
2023/03/28 06:09:14;;;;;;;0.80;0.40;;;1.10;99.90;;;;;;5053428;28;20502;-84
2023/03/28 06:11:41;;;;;;;0.40;0.37;;;1.10;99.90;;;;;;5053712;28;20438;-85
2023/03/28 06:14:08;;;;;;;0.30;0.30;;;1.10;99.90;;;;;;5053696;28;20482;-85
2023/03/28 06:16:35;;;;;;;0.60;0.60;;;1.20;99.90;;;;;;5053945;28;20442;-84
2023/03/28 06:19:04;;;;;;;1.37;0.60;;;1.20;99.90;;;;;;5053497;28;20474;-84
2023/03/28 06:21:30;;;;;;;0.90;0.30;;;1.30;99.90;;;;;;5053557;28;20541;-84
2023/03/28 06:23:57;;;;;;;0.60;0.57;;;1.40;99.90;;;;;;5073961;28;20427;-85
2023/03/28 06:26:24;;;;;;;0.40;0.30;;;1.70;99.90;;;;;;5076384;28;20461;-84
2023/03/28 06:28:51;;;;;;;0.60;0.60;;;2.70;99.90;;;;;;5071671;28;20485;-84
2023/03/28 06:31:18;;;;;;;0.40;0.37;;;3.90;99.90;;;;;;5059517;28;20442;-84
2023/03/28 06:33:45;;;;;;;1.60;0.40;;;5.20;99.90;;;;;;5054232;28;20960;-85
2023/03/28 06:36:13;;;;;;;0.40;0.40;;;6.30;99.90;;;;;;5054001;28;20454;-85
2023/03/28 06:38:39;;;;;;;0.60;0.57;;;7.20;99.90;;;;;;5053986;28;20447;-85
2023/03/28 06:41:07;;;;;;;0.60;0.60;;;7.80;99.90;;;;;;5053797;28;20482;-84
2023/03/28 06:43:33;;;;;;;0.50;0.50;;;7.50;99.90;;;;;;5054140;28;20447;-83
2023/03/28 06:46:00;;;;;;;0.97;0.60;;;7.00;99.90;;;;;;5053132;28;20569;-83
2023/03/28 06:48:30;;;;;;;10.00;0.73;;;6.30;99.90;;;;;;5053297;28;20454;-82
2023/03/28 06:50:57;;;;;;;3.37;0.47;;;5.70;99.90;;;;;;5053446;28;20541;-83
2023/03/28 06:53:25;;;;;;;0.40;0.30;;;5.10;99.90;;;;;;5053186;28;20447;-83
2023/03/28 06:55:53;;;;;;;0.67;0.53;;;4.60;99.90;;;;;;5053123;28;20450;-83
2023/03/28 06:58:21;;;;;;;1.53;0.50;;;4.30;99.90;;;;;;5052838;28;20486;-83
2023/03/28 07:00:48;;;;;;;0.70;0.60;;;4.00;99.90;;;;;;5053153;28;20454;-83
2023/03/28 07:03:15;;;;;;;0.90;0.53;;;3.80;99.90;;;;;;5053273;28;20817;-83
2023/03/28 07:05:42;;;;;;;0.53;0.53;;;3.60;99.90;;;;;;5052876;28;20840;-83
2023/03/28 07:08:10;;;;;;;0.33;0.33;;;3.50;99.90;;;;;;5053119;28;20456;-83
2023/03/28 07:10:39;;;;;;;1.50;0.67;;;3.50;99.90;;;;;;5052784;28;21008;-82
2023/03/28 07:13:06;;;;;;;0.40;0.40;;;3.50;99.90;;;;;;5052828;28;20443;-82
2023/03/28 07:15:33;;;;;;;1.80;0.70;;;3.50;99.90;;;;;;5052691;28;20937;-81
2023/03/28 07:18:00;;;;;;;5.23;0.60;;;3.50;99.90;;;;;;5052773;28;20973;-82
2023/03/28 07:20:27;;;;;;;0.50;0.30;;;3.50;99.90;;;;;;5053117;28;20474;-82
2023/03/28 07:22:54;;;;;;;0.30;0.30;;;3.60;99.90;;;;;;5052858;28;20482;-82
2023/03/28 07:25:20;;;;;;;1.20;1.20;;;3.60;99.90;;;;;;5052479;28;20434;-82
2023/03/28 07:27:49;;;;;;;0.63;0.63;;;3.70;99.90;;;;;;5052598;28;20438;-82
2023/03/28 07:30:16;;;;;;;0.30;0.30;;;3.70;99.90;;;;;;5052773;28;20474;-83
2023/03/28 07:32:42;;;;;;;0.70;0.70;;;3.70;99.90;;;;;;5052821;28;20815;-83
2023/03/28 07:35:09;;;;;;;0.30;0.30;;;3.80;99.90;;;;;;5053242;28;20529;-84
2023/03/28 07:37:36;;;;;;;0.40;0.40;;;3.90;99.90;;;;;;5052936;28;20442;-86
2023/03/28 07:40:05;;;;;;;0.40;0.40;;;4.00;99.90;;;;;;5053017;28;20973;-85
2023/03/28 07:42:31;;;;;;;0.60;0.60;;;4.00;99.90;;;;;;5052550;28;20861;-85
2023/03/28 07:44:59;;;;;;;0.30;0.30;;;4.00;99.90;;;;;;5052361;28;20454;-85
2023/03/28 07:47:26;;;;;;;0.50;0.40;;;4.10;99.90;;;;;;5052313;28;21056;-85
2023/03/28 07:49:53;;;;;;;0.80;0.77;;;4.20;99.90;;;;;;5052628;28;20470;-84
2023/03/28 07:52:20;;;;;;;0.60;0.60;;;4.10;99.90;;;;;;5052363;28;20454;-85
2023/03/28 07:54:47;;;;;;;0.30;0.30;;;4.20;99.90;;;;;;5052677;28;20439;-85
2023/03/28 07:57:14;;;;;;;0.50;0.50;;;4.30;99.90;;;;;;5053423;28;20876;-85
2023/03/28 07:59:40;;;;;;;0.40;0.40;;;4.40;99.90;;;;;;5056088;28;20561;-85
2023/03/28 08:02:12;;;;;;;0.40;0.40;;;4.50;99.90;;;;;;5056033;28;20454;-85
2023/03/28 08:04:38;;;;;;;0.70;0.70;;;4.60;99.90;;;;;;5056149;28;20454;-85
2023/03/28 08:07:06;;;;;;;0.40;0.30;;;4.50;99.90;;;;;;5055929;28;20482;-85
2023/03/28 08:09:34;;;;;;;5.20;0.70;;;4.60;99.90;;;;;;5055869;28;20556;-84
2023/03/28 08:12:00;;;;;;;0.60;0.50;;;4.80;99.90;;;;;;5056037;28;20521;-85
2023/03/28 08:14:27;;;;;;;2.53;0.50;;;4.90;99.90;;;;;;5055825;28;20451;-83
2023/03/28 08:16:54;;;;;;;0.50;0.50;;;5.10;99.90;;;;;;5056298;28;20442;-82
2023/03/28 08:19:22;;;;;;;1.50;0.77;;;5.30;99.90;;;;;;5056161;28;20879;-83
2023/03/28 08:21:49;;;;;;;0.50;0.40;;;5.50;99.90;;;;;;5055624;28;20484;-85
2023/03/28 08:24:16;;;;;;;0.40;0.40;;;5.70;99.90;;;;;;5056269;28;20454;-84
2023/03/28 08:26:43;;;;;;;0.40;0.30;;;5.90;99.90;;;;;;5055576;28;20490;-84
2023/03/28 08:29:10;;;;;;;0.30;0.30;;;6.10;99.90;;;;;;5055360;28;20477;-84
2023/03/28 08:31:37;;;;;;;0.47;0.47;;;6.30;99.90;;;;;;5055552;28;20465;-84
2023/03/28 08:34:03;;;;;;;0.33;0.30;;;6.30;99.90;;;;;;5055461;28;20461;-85
2023/03/28 08:36:31;;;;;;;0.60;0.60;;;6.40;99.90;;;;;;5055359;28;20461;-85
2023/03/28 08:39:00;;;;;;;0.50;0.43;;;6.40;99.90;;;;;;5058029;28;20470;-84
2023/03/28 08:41:47;;;;;;;0.30;0.30;;;6.50;99.90;;;;;;5056380;28;20489;-84
2023/03/28 08:44:31;;;;;;;0.40;0.33;;;6.60;99.90;;;;;;5056155;28;20879;-84
2023/03/28 08:47:03;;;;;;;1.37;0.50;;;6.60;99.90;;;;;;5055637;28;20469;-84
2023/03/28 08:49:33;;;;;;;0.40;0.40;;;6.70;99.90;;;;;;5055430;28;20466;-84
2023/03/28 08:52:04;;;;;;;18.90;1.33;;;6.80;99.90;;;;;;5055501;28;20434;-85
2023/03/28 08:54:38;;;;;;;2.00;0.70;;;7.00;99.90;;;;;;5055591;28;20534;-85
2023/03/28 08:57:07;;;;;;;1.03;0.40;;;7.00;99.90;;;;;;5055238;28;20433;-84
2023/03/28 08:59:44;;;;;;;1.37;0.60;;;7.20;99.90;;;;;;5055305;28;20478;-84
2023/03/28 09:02:17;;;;;;;0.87;0.87;;;7.30;99.90;;;;;;5055163;28;20439;-83
2023/03/28 09:04:44;;;;;;;0.40;0.30;;;7.60;99.90;;;;;;5055252;28;20434;-84
2023/03/28 09:07:25;;;;;;;0.60;0.50;;;7.90;99.90;;;;;;5054967;28;20513;-83
2023/03/28 09:10:05;;;;;;;0.60;0.50;;;8.90;99.90;;;;;;5054604;28;20984;-83
2023/03/28 09:12:46;;;;;;;3.43;0.60;;;10.30;99.90;;;;;;5056555;28;20830;-83
2023/03/28 09:15:34;;;;;;;0.40;0.30;;;12.60;99.90;;;;;;5054487;28;20437;-83
2023/03/28 09:18:21;;;;;;;0.60;0.50;;;14.40;93.30;;;;;;5054912;28;20439;-85
2023/03/28 09:20:52;;;;;;;1.40;0.80;;;14.60;85.60;;;;;;5055049;28;20438;-84
2023/03/28 09:23:36;;;;;;;0.70;0.70;;;14.30;78.50;;;;;;5055155;28;20427;-85
2023/03/28 09:26:10;;;;;;;1.33;0.80;;;14.30;80.50;;;;;;5055036;28;20470;-85
2023/03/28 09:28:44;;;;;;;0.50;0.40;;;15.20;77.60;;;;;;5054787;28;20509;-82
2023/03/28 09:31:14;;;;;;;0.60;0.60;;;16.30;79.30;;;;;;5054999;28;20473;-82
2023/03/28 09:33:45;;;;;;;0.70;0.60;;;17.00;65.70;;;;;;5054124;28;20457;-83
2023/03/28 09:36:14;;;;;;;1.27;1.17;;;17.60;65.20;;;;;;5054266;28;20420;-85
2023/03/28 09:38:46;;;;;;;1.60;0.70;;;18.50;64.40;;;;;;5054193;28;20478;-85
2023/03/28 09:41:19;;;;;;;2.03;0.73;;;19.00;62.60;;;;;;5054378;28;20422;-85
2023/03/28 09:43:52;;;;;;;5.43;0.80;;;20.20;58.60;;;;;;5055340;28;20525;-85
2023/03/28 09:46:25;;;;;;;0.50;0.50;;;20.30;55.10;;;;;;5054210;28;20470;-83
2023/03/28 09:48:53;;;;;;;0.70;0.70;;;20.00;51.60;;;;;;5054177;28;20470;-85
2023/03/28 09:51:20;;;;;;;1.00;0.73;;;18.80;54.50;;;;;;5053760;28;20826;-83
2023/03/28 09:53:49;;;;;;;0.90;0.90;;;17.50;54.60;;;;;;5054127;28;20863;-84
2023/03/28 09:56:23;;;;;;;0.80;0.60;;;16.70;56.40;;;;;;5054336;28;20453;-84
2023/03/28 09:58:51;;;;;;;0.50;0.50;;;17.30;57.70;;;;;;5054650;28;20474;-84
2023/03/28 10:01:30;;;;;;;0.80;0.80;;;18.40;55.70;;;;;;5054165;28;20451;-84
2023/03/28 10:03:57;;;;;;;0.60;0.60;;;19.50;54.90;;;;;;5054026;28;20473;-84
2023/03/28 10:06:26;;;;;;;1.57;0.70;;;20.60;52.60;;;;;;5053832;28;20490;-84
2023/03/28 10:09:09;;;;;;;0.80;0.80;;;20.40;50.90;;;;;;5053861;28;20572;-84
2023/03/28 10:11:47;;;;;;;1.93;1.17;;;20.10;50.50;;;;;;5053952;28;20403;-84
2023/03/28 10:14:29;;;;;;;0.60;0.60;;;19.80;48.90;;;;;;5053720;28;20445;-84
2023/03/28 10:16:56;;;;;;;0.57;0.57;;;19.40;49.00;;;;;;5053857;28;20459;-84
2023/03/28 10:19:25;;;;;;;2.80;0.87;;;19.40;47.60;;;;;;5053599;28;20469;-84
2023/03/28 10:21:52;;;;;;;0.70;0.60;;;19.60;47.50;;;;;;5053120;28;20934;-84
2023/03/28 10:24:21;;;;;;;2.43;0.87;;;19.50;49.20;;;;;;5054636;28;20430;-85
2023/03/28 10:26:48;;;;;;;1.00;0.90;;;19.70;48.80;;;;;;5053967;28;20482;-87
2023/03/28 10:29:15;;;;;;;0.70;0.60;;;19.50;48.10;;;;;;5069894;28;20862;-84
2023/03/28 10:31:48;;;;;;;1.20;0.57;;;19.80;48.60;;;;;;5066731;28;20427;-83
2023/03/28 10:34:25;;;;;;;0.73;0.73;;;19.30;47.80;;;;;;5068738;28;20430;-84
2023/03/28 10:36:52;;;;;;;1.43;0.87;;;19.40;51.80;;;;;;5062748;28;20425;-84
2023/03/28 10:39:25;;;;;;;0.83;0.83;;;18.80;47.90;;;;;;5054674;28;20473;-85
2023/03/28 10:41:53;;;;;;;1.57;0.73;;;18.80;48.80;;;;;;5053151;28;21010;-84
2023/03/28 10:44:27;;;;;;;1.00;0.80;;;18.90;51.60;;;;;;5053411;28;20454;-84
2023/03/28 10:46:55;;;;;;;0.77;0.77;;;18.80;48.60;;;;;;5053287;28;20506;-84
2023/03/28 10:49:23;;;;;;;0.50;0.50;;;18.90;47.80;;;;;;5053257;28;20561;-84
2023/03/28 10:51:50;;;;;;;2.57;1.03;;;19.70;48.80;;;;;;5053057;28;20449;-84
2023/03/28 10:54:38;;;;;;;0.67;0.63;;;20.50;47.60;;;;;;5053071;28;20956;-83
2023/03/28 10:57:10;;;;;;;0.70;0.60;;;21.50;43.80;;;;;;5053319;28;20429;-82
2023/03/28 10:59:47;;;;;;;2.20;0.80;;;21.80;42.40;;;;;;5053223;28;20470;-84
2023/03/28 11:02:35;;;;;;;4.00;1.17;;;22.90;46.40;;;;;;5053496;28;20429;-85
2023/03/28 11:05:16;;;;;;;0.67;0.63;;;23.50;43.20;;;;;;5053311;28;20435;-85
2023/03/28 11:07:48;;;;;;;0.93;0.80;;;23.70;45.70;;;;;;5053087;28;20469;-83
2023/03/28 11:10:22;;;;;;;0.50;0.50;;;23.50;43.50;;;;;;5053116;28;20481;-83
2023/03/28 11:12:57;;;;;;;1.17;0.73;;;22.10;43.60;;;;;;5053087;28;20442;-83
2023/03/28 11:15:29;;;;;;;1.87;0.67;;;20.90;43.70;;;;;;5053249;28;20434;-84
2023/03/28 11:18:06;;;;;;;1.73;0.70;;;19.20;43.10;;;;;;5053496;28;20506;-84
2023/03/28 11:20:44;;;;;;;0.67;0.60;;;17.80;52.00;;;;;;5052774;28;21020;-82
2023/03/28 11:23:38;;;;;;;0.70;0.60;;;16.60;49.70;;;;;;5053195;28;20442;-84
2023/03/28 11:26:11;;;;;;;0.80;0.53;;;15.40;48.60;;;;;;5053677;28;20418;-85
2023/03/28 11:28:48;;;;;;;2.60;0.73;;;14.60;50.60;;;;;;5053295;28;20522;-83
2023/03/28 11:31:18;;;;;;;2.30;0.50;;;14.20;51.60;;;;;;5053660;28;20430;-83
2023/03/28 11:33:54;;;;;;;0.73;0.70;;;13.80;52.50;;;;;;5056902;28;20438;-84
2023/03/28 11:36:28;;;;;;;0.60;0.60;;;13.40;55.10;;;;;;5057215;28;20419;-84
2023/03/28 11:38:59;;;;;;;0.90;0.80;;;13.20;57.10;;;;;;5057920;28;20485;-86
2023/03/28 11:41:31;;;;;;;2.97;0.70;;;12.90;56.40;;;;;;5057080;28;20797;-83
2023/03/28 11:44:02;;;;;;;1.33;0.70;;;13.00;57.30;;;;;;5057589;28;20451;-85
2023/03/28 11:46:31;;;;;;;1.10;1.00;;;13.00;56.50;;;;;;5057418;28;20435;-84
2023/03/28 11:49:08;;;;;;;5.90;0.80;;;12.90;52.90;;;;;;5056752;28;20467;-85
2023/03/28 11:51:42;;;;;;;0.90;0.80;;;12.70;54.90;;;;;;5056985;28;20418;-85
2023/03/28 11:54:14;;;;;;;4.10;0.97;;;12.70;54.10;;;;;;5057119;28;20441;-85
2023/03/28 11:56:51;;;;;;;1.63;1.00;;;12.60;54.20;;;;;;5057461;28;20863;-85
2023/03/28 11:59:24;;;;;;;0.80;0.80;;;12.20;54.30;;;;;;5057178;28;20532;-85
2023/03/28 12:01:56;;;;;;;0.50;0.50;;;12.00;52.90;;;;;;5057210;28;20427;-85
2023/03/28 12:04:27;;;;;;;1.00;0.60;;;11.90;53.30;;;;;;5057129;28;20438;-85
2023/03/28 12:07:06;;;;;;;0.73;0.60;;;11.70;56.10;;;;;;5057440;28;20894;-85
2023/03/28 12:09:37;;;;;;;2.90;1.00;;;11.70;56.50;;;;;;5056875;28;20512;-85
2023/03/28 12:12:11;;;;;;;1.60;0.87;;;11.70;55.40;;;;;;5057389;28;20770;-86
2023/03/28 12:14:47;;;;;;;0.50;0.50;;;11.50;53.90;;;;;;5057383;28;20437;-85
2023/03/28 12:17:21;;;;;;;0.70;0.53;;;11.10;54.50;;;;;;5056897;28;20430;-86
2023/03/28 12:19:47;;;;;;;2.73;0.53;;;11.00;57.90;;;;;;5056570;28;21046;-86
2023/03/28 12:22:20;;;;;;;1.90;0.90;;;10.90;57.20;;;;;;5060386;28;20475;-85
2023/03/28 12:24:53;;;;;;;5.30;0.63;;;11.10;57.70;;;;;;5058261;28;20910;-85
2023/03/28 12:27:30;;;;;;;1.40;0.53;;;11.30;56.70;;;;;;5056368;28;20474;-85
2023/03/28 12:30:04;;;;;;;1.57;0.70;;;11.50;57.40;;;;;;5056497;28;20458;-85
2023/03/28 12:32:42;;;;;;;0.57;0.57;;;11.40;56.90;;;;;;5056122;28;20799;-85
2023/03/28 12:35:17;;;;;;;0.50;0.43;;;11.50;55.60;;;;;;5057681;28;20419;-85
2023/03/28 12:37:58;;;;;;;1.20;0.53;;;11.50;56.30;;;;;;5055482;28;20915;-84
2023/03/28 12:40:31;;;;;;;0.73;0.73;;;11.50;56.70;;;;;;5055256;28;20977;-84
2023/03/28 12:43:00;;;;;;;1.13;0.50;;;11.50;56.20;;;;;;5055047;28;20442;-84
2023/03/28 12:45:30;;;;;;;0.80;0.50;;;11.50;55.20;;;;;;5055195;28;20946;-85
2023/03/28 12:48:01;;;;;;;1.23;0.70;;;11.40;57.40;;;;;;5055097;28;20478;-85
2023/03/28 12:50:31;;;;;;;2.00;0.60;;;11.40;58.00;;;;;;5055409;28;20919;-85
2023/03/28 12:52:59;;;;;;;0.80;0.80;;;11.20;56.10;;;;;;5055243;28;20442;-85
2023/03/28 12:55:43;;;;;;;2.23;0.70;;;10.90;55.80;;;;;;5056034;28;20463;-84
2023/03/28 12:58:21;;;;;;;0.67;0.60;;;10.70;55.70;;;;;;5056049;28;20840;-84
2023/03/28 13:00:57;;;;;;;0.50;0.50;;;10.40;55.30;;;;;;5055951;28;20445;-84
2023/03/28 13:03:34;;;;;;;0.70;0.70;;;10.10;54.80;;;;;;5055038;28;20437;-84
2023/03/28 13:06:09;;;;;;;0.53;0.50;;;9.90;56.80;;;;;;5055816;28;20446;-84
2023/03/28 13:08:48;;;;;;;0.67;0.50;;;9.70;56.80;;;;;;5055110;28;20561;-84
2023/03/28 13:11:20;;;;;;;0.67;0.40;;;9.50;57.10;;;;;;5054815;28;20504;-84